createdAt,value
2023-04-16T00:03:33.632Z,95099.50
2023-04-16T00:07:16.404Z,95102.91
2023-04-16T00:11:00.412Z,95099.31
2023-04-16T00:14:43.624Z,95099.91
2023-04-16T00:18:27.563Z,95103.06
2023-04-16T00:22:10.282Z,95098.91
2023-04-16T00:25:53.802Z,95093.88
2023-04-16T00:29:37.815Z,95099.94
2023-04-16T00:33:20.470Z,95096.38
2023-04-16T00:37:03.100Z,95101.22
2023-04-16T00:40:45.854Z,95093.06
2023-04-16T00:44:29.286Z,95100.53
2023-04-16T00:48:13.293Z,95098.44
2023-04-16T00:51:56.244Z,95092.44
2023-04-16T00:55:39.707Z,95104.13
2023-04-16T00:59:22.588Z,95099.59
2023-04-16T01:03:06.349Z,95088.31
2023-04-16T01:06:51.033Z,95088.84
2023-04-16T01:10:33.650Z,95101.16
2023-04-16T01:14:16.351Z,95104.59
2023-04-16T01:17:59.023Z,95099.91
2023-04-16T01:21:43.032Z,95101.56
2023-04-16T01:25:25.651Z,95103.50
2023-04-16T01:29:08.502Z,95103.84
2023-04-16T01:32:51.614Z,95106.16
2023-04-16T01:36:34.305Z,95104.34
2023-04-16T01:40:18.383Z,95112.97
2023-04-16T01:44:01.031Z,95115.88
2023-04-16T01:47:43.992Z,95122.06
2023-04-16T01:51:27.193Z,95123.06
2023-04-16T01:55:10.467Z,95126.28
2023-04-16T01:58:54.845Z,95113.09
2023-04-16T02:02:37.570Z,95121.72
2023-04-16T02:06:20.434Z,95111.75
2023-04-16T02:10:04.683Z,95123.28
2023-04-16T02:13:47.368Z,95110.78
2023-04-16T02:17:31.448Z,95118.25
2023-04-16T02:21:14.110Z,95114.03
2023-04-16T02:24:56.724Z,95114.06
2023-04-16T02:28:39.361Z,95115.19
2023-04-16T02:32:22.250Z,95120.38
2023-04-16T02:36:07.022Z,95126.19
2023-04-16T02:39:50.745Z,95124.91
2023-04-16T02:43:33.372Z,95121.66
2023-04-16T02:47:15.976Z,95124.09
2023-04-16T02:50:58.596Z,95122.81
2023-04-16T02:54:42.704Z,95123.00
2023-04-16T02:58:26.623Z,95129.81
2023-04-16T03:02:09.281Z,95133.00
2023-04-16T03:05:52.044Z,95129.06
2023-04-16T03:09:34.687Z,95139.38
2023-04-16T03:13:18.650Z,95149.84
2023-04-16T03:17:01.418Z,95145.16
2023-04-16T03:20:44.105Z,95141.13
2023-04-16T03:24:28.162Z,95141.13
2023-04-16T03:28:10.872Z,95139.97
2023-04-16T03:31:54.891Z,95139.97
2023-04-16T03:35:37.545Z,95157.16
2023-04-16T03:39:20.526Z,95155.47
2023-04-16T03:43:03.214Z,95154.22
2023-04-16T03:46:45.900Z,95152.25
2023-04-16T03:50:29.993Z,95157.44
2023-04-16T03:54:12.731Z,95150.56
2023-04-16T03:57:55.749Z,95151.25
2023-04-16T04:01:38.534Z,95162.78
2023-04-16T04:05:21.206Z,95164.34
2023-04-16T04:09:05.318Z,95178.88
2023-04-16T04:12:48.085Z,95178.28
2023-04-16T04:16:31.033Z,95182.53
2023-04-16T04:20:13.719Z,95179.69
2023-04-16T04:23:56.492Z,95168.56
2023-04-16T04:27:40.558Z,95173.13
2023-04-16T04:31:23.225Z,95183.84
2023-04-16T04:35:06.598Z,95178.97
2023-04-16T04:38:49.257Z,95178.81
2023-04-16T04:42:31.950Z,95185.47
2023-04-16T04:46:16.119Z,95179.66
2023-04-16T04:49:58.758Z,95189.06
2023-04-16T04:53:41.376Z,95194.75
2023-04-16T04:57:24.005Z,95193.13
2023-04-16T05:01:07.027Z,95200.13
2023-04-16T05:04:51.117Z,95197.88
2023-04-16T05:08:33.946Z,95202.25
2023-04-16T05:12:16.576Z,95199.81
2023-04-16T05:15:59.476Z,95199.47
2023-04-16T05:19:42.202Z,95209.56
2023-04-16T05:23:26.196Z,95220.00
2023-04-16T05:27:09.121Z,95222.28
2023-04-16T05:30:52.060Z,95224.25
2023-04-16T05:34:34.781Z,95227.16
2023-04-16T05:38:17.440Z,95230.75
2023-04-16T05:42:01.578Z,95233.06
2023-04-16T05:45:44.251Z,95234.81
2023-04-16T05:49:26.892Z,95239.69
2023-04-16T05:53:10.932Z,95225.31
2023-04-16T05:56:53.586Z,95231.06
2023-04-16T06:00:37.608Z,95233.66
2023-04-16T06:04:20.571Z,95243.78
2023-04-16T06:08:03.283Z,95246.72
2023-04-16T06:11:45.970Z,95253.56
2023-04-16T06:15:30.794Z,95252.88
2023-04-16T06:19:14.768Z,95242.47
2023-04-16T06:22:57.542Z,95252.38
2023-04-16T06:26:40.504Z,95253.47
2023-04-16T06:30:23.196Z,95253.47
2023-04-16T06:34:05.891Z,95267.41
2023-04-16T06:37:49.878Z,95258.59
2023-04-16T06:41:32.573Z,95256.59
2023-04-16T06:45:15.281Z,95262.25
2023-04-16T06:48:57.991Z,95267.41
2023-04-16T06:52:40.760Z,95265.88
2023-04-16T06:56:24.768Z,95264.38
2023-04-16T07:00:09.604Z,95287.69
2023-04-16T07:03:52.521Z,95288.78
2023-04-16T07:07:35.599Z,95280.31
2023-04-16T07:11:19.074Z,95290.28
2023-04-16T07:15:03.570Z,95276.97
2023-04-16T07:18:46.220Z,95281.13
2023-04-16T07:22:28.911Z,95283.69
2023-04-16T07:26:11.610Z,95284.59
2023-04-16T07:29:55.366Z,95280.06
2023-04-16T07:33:39.501Z,95297.38
2023-04-16T07:37:22.671Z,95297.53
2023-04-16T07:41:05.451Z,95291.44
2023-04-16T07:44:48.098Z,95298.78
2023-04-16T07:48:30.792Z,95294.63
2023-04-16T07:52:14.902Z,95296.41
2023-04-16T07:55:57.541Z,95306.69
2023-04-16T07:59:40.241Z,95301.50
2023-04-16T08:03:23.547Z,95306.06
2023-04-16T08:07:06.295Z,95314.53
2023-04-16T08:10:55.519Z,95313.53
2023-04-16T08:14:38.140Z,95315.63
2023-04-16T08:18:20.763Z,95320.94
2023-04-16T08:22:03.413Z,95317.56
2023-04-16T08:25:46.082Z,95318.47
2023-04-16T08:29:30.055Z,95315.81
2023-04-16T08:33:14.088Z,95320.59
2023-04-16T08:36:56.736Z,95316.00
2023-04-16T08:40:40.209Z,95319.06
2023-04-16T08:44:27.563Z,95322.13
2023-04-16T08:48:12.757Z,95322.13
2023-04-16T08:51:56.640Z,95329.44
2023-04-16T08:55:41.629Z,95323.03
2023-04-16T08:59:24.497Z,95323.53
2023-04-16T09:03:07.421Z,95339.59
2023-04-16T09:06:52.317Z,95330.41
2023-04-16T09:10:35.718Z,95339.94
2023-04-16T09:14:18.922Z,95338.38
2023-04-16T09:18:01.609Z,95353.47
2023-04-16T09:21:47.453Z,95344.44
2023-04-16T09:25:34.488Z,95346.66
2023-04-16T09:29:34.514Z,95344.63
2023-04-16T09:33:22.356Z,95346.31
2023-04-16T09:37:16.012Z,95341.56
2023-04-16T09:41:09.085Z,95348.16
2023-04-16T09:44:52.341Z,95346.44
2023-04-16T09:48:35.311Z,95351.31
2023-04-16T09:52:19.629Z,95351.81
2023-04-16T09:56:03.173Z,95355.69
2023-04-16T09:59:47.156Z,95358.97
2023-04-16T10:03:33.902Z,95353.22
2023-04-16T10:07:16.808Z,95354.94
2023-04-16T10:10:59.794Z,95358.06
2023-04-16T10:14:42.884Z,95364.41
2023-04-16T10:18:27.068Z,95365.38
2023-04-16T10:22:10.789Z,95355.50
2023-04-16T10:25:57.335Z,95372.78
2023-04-16T10:29:40.508Z,95371.91
2023-04-16T10:33:24.629Z,95366.84
2023-04-16T10:37:08.593Z,95364.69
2023-04-16T10:40:51.456Z,95359.69
2023-04-16T10:44:34.495Z,95368.41
2023-04-16T10:48:19.620Z,95363.13
2023-04-16T10:52:08.961Z,95364.69
2023-04-16T10:56:00.597Z,95373.00
2023-04-16T10:59:44.257Z,95367.91
2023-04-16T11:03:27.563Z,95367.66
2023-04-16T11:07:16.732Z,95365.50
2023-04-16T11:11:01.893Z,95365.28
2023-04-16T11:14:44.583Z,95369.59
2023-04-16T11:18:27.312Z,95372.28
2023-04-16T11:22:11.222Z,95375.19
2023-04-16T11:25:57.175Z,95383.25
2023-04-16T11:29:41.446Z,95383.38
2023-04-16T11:33:26.389Z,95375.53
2023-04-16T11:37:09.062Z,95379.00
2023-04-16T11:40:54.097Z,95376.75
2023-04-16T11:44:36.934Z,95380.00
2023-04-16T11:48:21.168Z,95380.25
2023-04-16T11:52:03.884Z,95385.88
2023-04-16T11:55:46.565Z,95386.88
2023-04-16T11:59:29.234Z,95389.72
2023-04-16T12:03:12.185Z,95391.09
2023-04-16T12:07:10.075Z,95384.53
2023-04-16T12:10:56.508Z,95394.09
2023-04-16T12:14:39.202Z,95385.03
2023-04-16T12:18:23.670Z,95383.03
2023-04-16T12:22:06.598Z,95396.91
2023-04-16T12:25:52.103Z,95391.69
2023-04-16T12:29:34.741Z,95392.25
2023-04-16T12:33:19.022Z,95395.69
2023-04-16T12:37:07.709Z,95397.19
2023-04-16T12:40:52.468Z,95401.38
2023-04-16T12:44:35.828Z,95402.00
2023-04-16T12:48:18.442Z,95404.47
2023-04-16T12:52:01.176Z,95396.63
2023-04-16T12:55:45.559Z,95404.91
2023-04-16T12:59:29.584Z,95401.91
2023-04-16T13:03:12.373Z,95396.22
2023-04-16T13:06:55.196Z,95397.03
2023-04-16T13:10:38.120Z,95406.34
2023-04-16T13:14:21.614Z,95399.75
2023-04-16T13:18:05.913Z,95399.16
2023-04-16T13:21:48.634Z,95404.00
2023-04-16T13:25:31.705Z,95406.16
2023-04-16T13:29:14.312Z,95410.72
2023-04-16T13:32:57.094Z,95409.22
2023-04-16T13:36:41.125Z,95415.69
2023-04-16T13:40:23.918Z,95414.25
2023-04-16T13:44:06.984Z,95412.84
2023-04-16T13:47:49.682Z,95425.69
2023-04-16T13:51:32.449Z,95413.69
2023-04-16T13:55:19.140Z,95413.97
2023-04-16T13:59:01.937Z,95412.31
2023-04-16T14:02:45.969Z,95417.09
2023-04-16T14:06:29.091Z,95418.31
2023-04-16T14:10:12.009Z,95425.69
2023-04-16T14:13:56.175Z,95422.31
2023-04-16T14:17:38.924Z,95416.06
2023-04-16T14:21:21.641Z,95426.19
2023-04-16T14:25:04.539Z,95426.44
2023-04-16T14:28:47.200Z,95420.56
2023-04-16T14:32:31.483Z,95423.69
2023-04-16T14:36:14.253Z,95432.19
2023-04-16T14:39:56.920Z,95428.13
2023-04-16T14:43:40.550Z,95419.69
2023-04-16T14:47:23.331Z,95425.31
2023-04-16T14:51:07.378Z,95417.22
2023-04-16T14:54:51.139Z,95423.63
2023-04-16T14:58:36.884Z,95425.69
2023-04-16T15:02:21.483Z,95424.19
2023-04-16T15:06:04.518Z,95431.00
2023-04-16T15:09:48.603Z,95437.28
2023-04-16T15:13:33.910Z,95432.16
2023-04-16T15:17:16.638Z,95427.44
2023-04-16T15:20:59.383Z,95426.81
2023-04-16T15:24:42.020Z,95434.88
2023-04-16T15:28:26.093Z,95431.47
2023-04-16T15:32:08.750Z,95423.81
2023-04-16T15:35:52.430Z,95434.47
2023-04-16T15:39:35.123Z,95435.72
2023-04-16T15:43:17.807Z,95437.59
2023-04-16T15:47:02.040Z,95448.41
2023-04-16T15:50:44.658Z,95444.31
2023-04-16T15:54:27.510Z,95433.19
2023-04-16T15:58:10.170Z,95443.06
2023-04-16T16:01:53.054Z,95443.16
2023-04-16T16:05:37.088Z,95450.03
2023-04-16T16:09:25.619Z,95447.47
2023-04-16T16:13:12.904Z,95450.41
2023-04-16T16:16:55.528Z,95440.31
2023-04-16T16:20:40.483Z,95441.53
2023-04-16T16:24:23.117Z,95439.44
2023-04-16T16:28:06.644Z,95439.34
2023-04-16T16:31:49.600Z,95445.28
2023-04-16T16:35:32.528Z,95449.66
2023-04-16T16:39:16.593Z,95444.28
2023-04-16T16:42:59.285Z,95443.00
2023-04-16T16:46:43.109Z,95443.75
2023-04-16T16:50:25.827Z,95453.13
2023-04-16T16:54:09.022Z,95442.22
2023-04-16T16:57:53.081Z,95459.47
2023-04-16T17:01:35.988Z,95451.00
2023-04-16T17:05:18.712Z,95455.81
2023-04-16T17:09:01.476Z,95463.31
2023-04-16T17:12:44.111Z,95466.78
2023-04-16T17:16:28.129Z,95462.63
2023-04-16T17:20:12.460Z,95470.84
2023-04-16T17:23:58.083Z,95469.34
2023-04-16T17:27:40.741Z,95465.47
2023-04-16T17:31:24.998Z,95472.06
2023-04-16T17:35:11.223Z,95472.78
2023-04-16T17:38:53.861Z,95478.72
2023-04-16T17:42:36.806Z,95479.19
2023-04-16T17:46:19.540Z,95494.94
2023-04-16T17:50:02.285Z,95495.50
2023-04-16T17:53:46.322Z,95492.97
2023-04-16T17:57:29.066Z,95494.22
2023-04-16T18:01:11.852Z,95499.47
2023-04-16T18:04:54.686Z,95494.59
2023-04-16T18:08:37.535Z,95501.44
2023-04-16T18:12:21.522Z,95512.78
2023-04-16T18:16:07.678Z,95521.06
2023-04-16T18:19:50.555Z,95527.00
2023-04-16T18:23:33.176Z,95529.91
2023-04-16T18:27:15.990Z,95531.44
2023-04-16T18:31:04.880Z,95537.88
2023-04-16T18:34:47.602Z,95543.22
2023-04-16T18:38:31.370Z,95548.19
2023-04-16T18:42:14.034Z,95545.56
2023-04-16T18:45:56.769Z,95550.53
2023-04-16T18:49:40.793Z,95554.84
2023-04-16T18:53:23.427Z,95566.22
2023-04-16T18:57:06.089Z,95557.28
2023-04-16T19:00:48.901Z,95559.72
2023-04-16T19:04:31.687Z,95563.69
2023-04-16T19:08:15.770Z,95566.94
2023-04-16T19:11:58.445Z,95576.13
2023-04-16T19:15:41.193Z,95582.00
2023-04-16T19:19:23.939Z,95576.13
2023-04-16T19:23:09.095Z,95574.34
2023-04-16T19:26:53.124Z,95583.53
2023-04-16T19:30:35.847Z,95584.06
2023-04-16T19:34:18.517Z,95586.22
2023-04-16T19:38:01.243Z,95581.72
2023-04-16T19:41:43.915Z,95579.16
2023-04-16T19:45:29.126Z,95579.78
2023-04-16T19:49:12.111Z,95579.81
2023-04-16T19:52:54.946Z,95579.53
2023-04-16T19:56:37.651Z,95574.97
2023-04-16T20:00:20.931Z,95579.97
2023-04-16T20:04:05.090Z,95586.50
2023-04-16T20:07:47.762Z,95583.09
2023-04-16T20:11:30.549Z,95587.59
2023-04-16T20:15:13.205Z,95594.34
2023-04-16T20:18:55.851Z,95587.94
2023-04-16T20:22:40.269Z,95585.72
2023-04-16T20:26:23.927Z,95580.66
2023-04-16T20:30:07.735Z,95568.00
2023-04-16T20:33:50.405Z,95576.25
2023-04-16T20:37:37.991Z,95580.28
2023-04-16T20:41:22.549Z,95584.72
2023-04-16T20:45:06.231Z,95579.03
2023-04-16T20:48:48.860Z,95579.66
2023-04-16T20:52:31.571Z,95574.16
2023-04-16T20:56:15.519Z,95576.13
2023-04-16T20:59:59.652Z,95584.13
2023-04-16T21:03:42.490Z,95572.25
2023-04-16T21:07:25.459Z,95576.19
2023-04-16T21:11:08.229Z,95576.69
2023-04-16T21:14:50.994Z,95577.06
2023-04-16T21:18:35.325Z,95577.91
2023-04-16T21:22:18.034Z,95579.88
2023-04-16T21:26:00.787Z,95580.41
2023-04-16T21:29:43.794Z,95590.84
2023-04-16T21:33:26.642Z,95589.06
2023-04-16T21:37:11.315Z,95591.31
2023-04-16T21:40:56.899Z,95591.97
2023-04-16T21:44:39.548Z,95588.66
2023-04-16T21:48:22.652Z,95585.72
2023-04-16T21:52:05.893Z,95586.06
2023-04-16T21:55:50.073Z,95591.44
2023-04-16T21:59:32.760Z,95585.75
2023-04-16T22:03:17.457Z,95587.09
2023-04-16T22:07:03.241Z,95579.25
2023-04-16T22:10:46.026Z,95578.94
2023-04-16T22:14:31.892Z,95590.38
2023-04-16T22:18:17.232Z,95578.66
2023-04-16T22:21:59.940Z,95570.19
2023-04-16T22:25:42.846Z,95572.16
2023-04-16T22:29:25.811Z,95583.59
2023-04-16T22:33:09.947Z,95575.44
2023-04-16T22:36:52.624Z,95578.56
2023-04-16T22:40:35.378Z,95567.66
2023-04-16T22:44:18.154Z,95578.78
2023-04-16T22:48:00.913Z,95567.88
2023-04-16T22:51:45.012Z,95565.97
2023-04-16T22:55:27.809Z,95559.44
2023-04-16T22:59:10.779Z,95564.16
2023-04-16T23:02:53.693Z,95568.41
2023-04-16T23:06:36.457Z,95565.16
2023-04-16T23:10:20.625Z,95572.66
2023-04-16T23:14:05.007Z,95566.63
2023-04-16T23:17:47.704Z,95570.22
2023-04-16T23:21:30.947Z,95571.06
2023-04-16T23:25:13.674Z,95570.41
2023-04-16T23:28:58.064Z,95563.56
2023-04-16T23:32:40.723Z,95559.03
2023-04-16T23:36:23.485Z,95564.56
2023-04-16T23:40:08.121Z,95566.53
2023-04-16T23:43:50.782Z,95564.91
2023-04-16T23:47:34.820Z,95572.91
2023-04-16T23:51:17.528Z,95567.19
2023-04-16T23:55:00.185Z,95564.59
2023-04-16T23:58:42.848Z,95554.50
